Time;durP1;ratioP1;P1;durP2;ratioP2;P2;SDS_P1;SDS_P2;PMS_P1;PMS_P2;Temp;Humidity;BMP_temperature;BMP_pressure;BME280_temperature;BME280_humidity;BME280_pressure;Samples;Min_cycle;Max_cycle;Signal;HPM_P1;HPM_P2
2023/06/13 00:00:16;;;;;;;4.13;3.83;;;19.80;99.90;;;;;;5056194;28;20207;-76
2023/06/13 00:02:44;;;;;;;4.03;3.72;;;19.70;99.90;;;;;;5051253;28;20617;-76
2023/06/13 00:05:11;;;;;;;4.10;3.80;;;19.60;99.90;;;;;;5053165;28;20206;-75
2023/06/13 00:07:38;;;;;;;5.00;4.60;;;19.50;99.90;;;;;;5054942;28;20241;-75
2023/06/13 00:10:06;;;;;;;4.00;3.70;;;19.40;99.90;;;;;;5057153;28;20286;-75
2023/06/13 00:12:34;;;;;;;4.88;4.47;;;19.40;99.90;;;;;;5059048;28;20691;-74
2023/06/13 00:15:03;;;;;;;3.83;3.53;;;19.30;99.90;;;;;;5055807;28;20664;-75
2023/06/13 00:17:31;;;;;;;4.07;3.78;;;19.30;99.90;;;;;;5059655;28;20233;-73
2023/06/13 00:19:59;;;;;;;2.95;2.75;;;19.30;99.90;;;;;;5059272;28;20214;-74
2023/06/13 00:22:28;;;;;;;3.05;2.85;;;19.30;99.90;;;;;;5054816;28;20706;-75
2023/06/13 00:24:55;;;;;;;2.45;2.25;;;19.40;99.90;;;;;;5055102;28;20659;-74
2023/06/13 00:27:22;;;;;;;4.85;2.20;;;19.30;99.90;;;;;;5057092;28;20737;-75
2023/06/13 00:29:49;;;;;;;2.00;1.90;;;19.30;99.90;;;;;;5057383;28;20255;-75
2023/06/13 00:32:17;;;;;;;2.50;2.25;;;19.30;99.90;;;;;;5057254;28;20770;-74
2023/06/13 00:34:46;;;;;;;3.22;2.92;;;19.20;99.90;;;;;;5053100;28;20209;-74
2023/06/13 00:37:14;;;;;;;4.50;4.10;;;19.10;99.90;;;;;;5056322;28;20230;-73
2023/06/13 00:39:41;;;;;;;5.85;5.35;;;18.70;99.90;;;;;;5056121;28;20214;-75
2023/06/13 00:42:08;;;;;;;7.22;6.63;;;18.30;99.90;;;;;;5065846;28;20252;-74
2023/06/13 00:44:35;;;;;;;6.38;5.78;;;18.10;99.90;;;;;;5055498;28;20293;-75
2023/06/13 00:47:03;;;;;;;7.38;5.90;;;17.90;99.90;;;;;;5058102;28;20218;-75
2023/06/13 00:49:32;;;;;;;4.88;4.47;;;17.70;99.90;;;;;;5055569;28;20244;-74
2023/06/13 00:52:04;;;;;;;4.70;4.38;;;17.60;99.90;;;;;;5055646;28;20198;-75
2023/06/13 00:54:32;;;;;;;3.72;3.42;;;17.60;99.90;;;;;;5059610;28;20217;-74
2023/06/13 00:57:00;;;;;;;3.80;3.50;;;17.50;99.90;;;;;;5056448;28;20794;-75
2023/06/13 00:59:27;;;;;;;3.55;3.25;;;17.60;99.90;;;;;;5060240;28;20279;-74
2023/06/13 01:01:55;;;;;;;3.15;2.95;;;17.60;99.90;;;;;;5053785;28;20831;-75
2023/06/13 01:04:22;;;;;;;3.60;3.30;;;17.60;99.90;;;;;;5054123;28;20206;-75
2023/06/13 01:06:51;;;;;;;3.60;3.40;;;17.60;99.90;;;;;;5053973;28;20961;-75
2023/06/13 01:09:18;;;;;;;2.95;2.75;;;17.60;99.90;;;;;;5056982;28;20255;-75
2023/06/13 01:12:03;;;;;;;2.60;2.40;;;17.70;99.90;;;;;;5056339;28;20194;-75
2023/06/13 01:14:40;;;;;;;2.67;2.47;;;17.80;99.90;;;;;;5060230;28;20234;-74
2023/06/13 01:17:14;;;;;;;2.50;2.40;;;17.90;99.90;;;;;;5052698;28;20214;-74
2023/06/13 01:19:43;;;;;;;2.58;2.40;;;18.00;99.90;;;;;;5058615;28;20229;-74
2023/06/13 01:22:16;;;;;;;2.33;2.15;;;18.10;99.90;;;;;;5056377;28;20217;-74
2023/06/13 01:25:08;;;;;;;2.20;2.00;;;18.10;99.90;;;;;;5055534;28;20194;-75
2023/06/13 01:27:38;;;;;;;2.38;2.28;;;18.10;99.90;;;;;;5053320;28;20748;-74
2023/06/13 01:30:07;;;;;;;2.65;1.95;;;18.10;99.90;;;;;;5058434;28;20218;-75
2023/06/13 01:32:36;;;;;;;1.90;1.80;;;18.10;99.90;;;;;;5057382;28;20205;-75
2023/06/13 01:35:05;;;;;;;1.58;1.48;;;18.10;99.90;;;;;;5058942;28;20198;-75
2023/06/13 01:37:33;;;;;;;1.55;1.45;;;18.10;99.90;;;;;;5060934;28;20309;-75
2023/06/13 01:40:03;;;;;;;1.23;1.23;;;18.30;99.90;;;;;;5068247;28;20221;-75
2023/06/13 01:42:30;;;;;;;1.60;1.50;;;18.50;99.90;;;;;;5056608;28;20202;-74
2023/06/13 01:44:59;;;;;;;2.05;1.40;;;18.70;99.90;;;;;;5057763;28;20305;-75
2023/06/13 01:47:31;;;;;;;1.30;1.20;;;18.70;99.90;;;;;;5054119;28;20309;-75
2023/06/13 01:50:11;;;;;;;1.20;1.20;;;18.80;99.90;;;;;;5058168;28;20303;-75
2023/06/13 01:52:48;;;;;;;2.45;1.40;;;18.80;99.90;;;;;;5057024;28;20234;-74
2023/06/13 01:55:21;;;;;;;1.42;1.35;;;18.80;99.90;;;;;;5058723;28;20234;-75
2023/06/13 01:57:52;;;;;;;1.40;1.40;;;18.40;99.90;;;;;;5057914;28;20312;-75
2023/06/13 02:00:22;;;;;;;2.80;1.70;;;18.00;99.90;;;;;;5057665;28;20246;-74
2023/06/13 02:02:49;;;;;;;1.80;1.70;;;17.50;99.90;;;;;;5055626;28;20282;-75
2023/06/13 02:05:16;;;;;;;1.58;1.48;;;17.20;99.90;;;;;;5058406;28;20697;-75
2023/06/13 02:07:44;;;;;;;1.60;1.50;;;17.10;99.90;;;;;;5058750;28;20694;-76
2023/06/13 02:10:11;;;;;;;1.33;1.30;;;17.10;99.90;;;;;;5061418;28;20861;-74
2023/06/13 02:12:39;;;;;;;1.30;1.30;;;17.20;99.90;;;;;;5057258;28;20222;-75
2023/06/13 02:15:08;;;;;;;1.50;1.40;;;17.30;99.90;;;;;;5055811;28;20202;-75
2023/06/13 02:17:36;;;;;;;1.73;1.63;;;17.40;99.90;;;;;;5059683;28;20245;-75
2023/06/13 02:20:04;;;;;;;1.63;1.52;;;17.30;99.90;;;;;;5059486;28;20302;-75
2023/06/13 02:22:31;;;;;;;1.60;1.50;;;17.20;99.90;;;;;;5059868;28;20198;-74
2023/06/13 02:24:59;;;;;;;1.63;1.52;;;17.10;99.90;;;;;;5059198;28;20230;-75
2023/06/13 02:27:26;;;;;;;1.50;1.40;;;17.00;99.90;;;;;;5057580;28;20218;-75
2023/06/13 02:29:54;;;;;;;1.60;1.50;;;17.00;99.90;;;;;;5059466;28;20202;-75
2023/06/13 02:32:22;;;;;;;1.80;1.70;;;17.00;99.90;;;;;;5061179;28;20198;-74
2023/06/13 02:34:51;;;;;;;1.77;1.67;;;17.00;99.90;;;;;;5060785;28;20206;-75
2023/06/13 02:37:20;;;;;;;1.98;1.88;;;16.90;99.90;;;;;;5068501;28;20253;-74
2023/06/13 02:39:47;;;;;;;3.53;1.60;;;16.90;99.90;;;;;;5054823;28;20249;-75
2023/06/13 02:42:14;;;;;;;1.65;1.55;;;16.80;99.90;;;;;;5060829;28;20199;-75
2023/06/13 02:44:41;;;;;;;2.65;1.80;;;16.80;99.90;;;;;;5060885;28;20665;-74
2023/06/13 02:47:08;;;;;;;1.63;1.52;;;16.90;99.90;;;;;;5058454;28;20245;-75
2023/06/13 02:49:35;;;;;;;1.50;1.40;;;16.90;99.90;;;;;;5056648;28;20249;-73
2023/06/13 02:52:04;;;;;;;1.50;1.40;;;17.00;99.90;;;;;;5056437;28;20247;-75
2023/06/13 02:54:31;;;;;;;1.63;1.52;;;17.10;99.90;;;;;;5056776;28;20195;-74
2023/06/13 02:56:58;;;;;;;1.42;1.33;;;17.10;99.90;;;;;;5059759;28;20242;-74
2023/06/13 02:59:27;;;;;;;1.30;1.30;;;17.20;99.90;;;;;;5057985;28;20728;-74
2023/06/13 03:01:54;;;;;;;1.52;1.42;;;17.30;99.90;;;;;;5053635;28;20205;-74
2023/06/13 03:04:20;;;;;;;1.25;1.25;;;17.30;99.90;;;;;;5057762;28;20207;-74
2023/06/13 03:06:49;;;;;;;2.15;1.40;;;17.30;99.90;;;;;;5054188;28;20399;-75
2023/06/13 03:09:18;;;;;;;1.60;1.50;;;17.30;99.90;;;;;;5058982;28;20195;-74
2023/06/13 03:11:45;;;;;;;1.60;1.50;;;17.30;99.90;;;;;;5057003;28;20289;-74
2023/06/13 03:14:13;;;;;;;3.33;1.80;;;17.30;99.90;;;;;;5054626;28;20285;-75
2023/06/13 03:16:40;;;;;;;1.50;1.40;;;17.20;99.90;;;;;;5058293;28;20218;-74
2023/06/13 03:19:07;;;;;;;1.70;1.60;;;17.10;99.90;;;;;;5056094;28;20207;-75
2023/06/13 03:21:34;;;;;;;1.77;1.67;;;17.10;99.90;;;;;;5054601;28;20231;-75
2023/06/13 03:24:01;;;;;;;1.30;1.30;;;17.10;99.90;;;;;;5055094;28;20263;-75
2023/06/13 03:26:38;;;;;;;1.52;1.42;;;17.10;99.90;;;;;;5056278;28;20265;-75
2023/06/13 03:29:05;;;;;;;1.67;1.40;;;17.10;99.90;;;;;;5056989;28;20205;-76
2023/06/13 03:31:32;;;;;;;1.48;1.48;;;17.20;99.90;;;;;;5057847;28;20206;-75
2023/06/13 03:33:59;;;;;;;1.30;1.30;;;17.20;99.90;;;;;;5068836;28;20263;-75
2023/06/13 03:36:26;;;;;;;1.63;1.52;;;17.20;99.90;;;;;;5052740;28;20320;-74
2023/06/13 03:38:53;;;;;;;1.92;1.60;;;17.20;99.90;;;;;;5056964;28;20749;-75
2023/06/13 03:41:20;;;;;;;1.23;1.20;;;17.20;99.90;;;;;;5057705;28;20234;-75
2023/06/13 03:43:49;;;;;;;1.52;1.42;;;17.20;99.90;;;;;;5058824;28;20234;-74
2023/06/13 03:46:15;;;;;;;1.42;1.35;;;17.20;99.90;;;;;;5058488;28;20309;-74
2023/06/13 03:48:42;;;;;;;1.30;1.30;;;17.20;99.90;;;;;;5056504;28;20317;-74
2023/06/13 03:51:09;;;;;;;1.40;1.30;;;17.20;99.90;;;;;;5054400;28;20234;-75
2023/06/13 03:53:38;;;;;;;1.40;1.40;;;17.30;99.90;;;;;;5058858;28;20275;-74
2023/06/13 03:56:06;;;;;;;1.60;1.50;;;17.30;99.90;;;;;;5056925;28;20289;-74
2023/06/13 03:58:33;;;;;;;1.65;1.55;;;17.30;99.90;;;;;;5061017;28;20289;-77
2023/06/13 04:01:02;;;;;;;1.80;1.70;;;17.20;99.90;;;;;;5051437;28;20310;-75
2023/06/13 04:03:29;;;;;;;1.70;1.60;;;17.20;99.90;;;;;;5058121;28;20202;-75
2023/06/13 04:05:56;;;;;;;1.50;1.40;;;17.10;99.90;;;;;;5053579;28;20194;-75
2023/06/13 04:08:23;;;;;;;1.90;1.80;;;17.10;99.90;;;;;;5057370;28;20306;-75
2023/06/13 04:10:50;;;;;;;1.70;1.60;;;17.20;99.90;;;;;;5056998;28;20290;-75
2023/06/13 04:13:17;;;;;;;1.60;1.50;;;17.20;99.90;;;;;;5060074;28;20287;-75
2023/06/13 04:15:44;;;;;;;1.70;1.60;;;17.30;99.90;;;;;;5057408;28;20357;-76
2023/06/13 04:18:16;;;;;;;1.60;1.50;;;17.20;99.90;;;;;;5052787;28;20284;-75
2023/06/13 04:20:43;;;;;;;1.50;1.40;;;17.30;99.90;;;;;;5056931;28;20218;-74
2023/06/13 04:23:10;;;;;;;1.80;1.70;;;17.30;99.90;;;;;;5054484;28;20248;-75
2023/06/13 04:25:39;;;;;;;1.75;1.65;;;17.30;99.90;;;;;;5059299;28;20255;-74
2023/06/13 04:28:07;;;;;;;2.00;1.90;;;17.40;99.90;;;;;;5057290;28;20226;-74
2023/06/13 04:30:34;;;;;;;2.08;1.98;;;17.40;99.90;;;;;;5066053;28;20195;-74
2023/06/13 04:33:02;;;;;;;2.55;1.90;;;17.40;99.90;;;;;;5052759;28;20680;-74
2023/06/13 04:35:37;;;;;;;1.85;1.75;;;17.40;99.90;;;;;;5056092;28;20209;-75
2023/06/13 04:38:04;;;;;;;2.75;1.90;;;17.30;99.90;;;;;;5052929;28;20217;-74
2023/06/13 04:40:33;;;;;;;2.15;2.05;;;17.30;99.90;;;;;;5055396;28;20218;-75
2023/06/13 04:43:03;;;;;;;2.33;2.22;;;17.30;99.90;;;;;;5052377;28;20199;-75
2023/06/13 04:45:30;;;;;;;1.90;1.80;;;17.30;99.90;;;;;;5057919;28;20574;-76
2023/06/13 04:48:01;;;;;;;3.30;3.00;;;17.20;99.90;;;;;;5053638;28;20313;-75
2023/06/13 04:50:28;;;;;;;2.05;1.95;;;17.30;99.90;;;;;;5056511;28;20210;-76
2023/06/13 04:52:57;;;;;;;2.35;2.22;;;17.20;99.90;;;;;;5059687;28;20217;-75
2023/06/13 04:55:25;;;;;;;1.90;1.80;;;17.20;99.90;;;;;;5052831;28;20210;-74
2023/06/13 04:57:52;;;;;;;1.85;1.75;;;17.20;99.90;;;;;;5056492;28;20897;-75
2023/06/13 05:00:20;;;;;;;2.47;2.28;;;17.30;99.90;;;;;;5049616;28;20269;-75
2023/06/13 05:02:48;;;;;;;2.20;2.10;;;17.30;99.90;;;;;;5056249;28;20212;-76
2023/06/13 05:05:16;;;;;;;6.43;2.78;;;17.20;99.90;;;;;;5053668;28;20204;-75
2023/06/13 05:07:44;;;;;;;2.30;2.10;;;17.20;99.90;;;;;;5054942;28;20640;-75
2023/06/13 05:10:12;;;;;;;2.20;2.00;;;17.10;99.90;;;;;;5053724;28;20290;-74
2023/06/13 05:12:39;;;;;;;2.17;2.08;;;17.10;99.90;;;;;;5056974;28;20242;-75
2023/06/13 05:15:07;;;;;;;2.13;2.00;;;17.10;99.90;;;;;;5055986;28;20205;-75
2023/06/13 05:17:37;;;;;;;2.20;1.95;;;17.10;99.90;;;;;;5056496;28;20312;-75
2023/06/13 05:20:05;;;;;;;2.35;2.10;;;17.10;99.90;;;;;;5054901;28;20230;-75
2023/06/13 05:22:33;;;;;;;1.95;1.85;;;17.20;99.90;;;;;;5056073;28;20742;-75
2023/06/13 05:25:00;;;;;;;2.35;2.15;;;17.20;99.90;;;;;;5054882;28;20252;-74
2023/06/13 05:27:29;;;;;;;2.58;2.10;;;17.30;99.90;;;;;;5056624;28;20222;-74
2023/06/13 05:29:56;;;;;;;3.47;2.40;;;17.30;99.90;;;;;;5058130;28;20199;-75
2023/06/13 05:32:23;;;;;;;3.33;2.47;;;17.30;99.90;;;;;;5053451;28;20245;-75
2023/06/13 05:34:50;;;;;;;3.30;2.38;;;17.30;99.90;;;;;;5053881;28;20289;-74
2023/06/13 05:37:17;;;;;;;3.17;2.03;;;17.30;99.90;;;;;;5058650;28;20570;-75
2023/06/13 05:39:44;;;;;;;1.60;1.48;;;17.40;99.90;;;;;;5050264;28;20198;-74
2023/06/13 05:42:11;;;;;;;2.28;2.08;;;17.50;99.90;;;;;;5056803;28;20194;-75
2023/06/13 05:44:40;;;;;;;2.78;2.05;;;17.50;99.90;;;;;;5057263;28;20198;-74
2023/06/13 05:47:07;;;;;;;2.92;2.15;;;17.60;99.90;;;;;;5053030;28;20284;-75
2023/06/13 05:49:35;;;;;;;2.05;1.95;;;17.60;99.90;;;;;;5054940;28;20298;-75
2023/06/13 05:52:02;;;;;;;2.40;2.20;;;17.60;99.90;;;;;;5054525;28;20191;-75
2023/06/13 05:54:29;;;;;;;2.30;2.10;;;17.50;99.90;;;;;;5052266;28;20237;-75
2023/06/13 05:56:56;;;;;;;2.25;2.10;;;17.60;99.90;;;;;;5051482;28;20821;-75
2023/06/13 05:59:23;;;;;;;2.10;2.00;;;17.60;99.90;;;;;;5050731;28;20295;-75
2023/06/13 06:01:51;;;;;;;2.10;2.00;;;17.70;99.90;;;;;;5052419;28;20514;-75
2023/06/13 06:04:18;;;;;;;2.88;1.90;;;17.80;99.90;;;;;;5054582;28;20195;-75
2023/06/13 06:06:45;;;;;;;1.95;1.85;;;17.90;99.90;;;;;;5054875;28;20214;-75
2023/06/13 06:09:12;;;;;;;1.98;1.88;;;17.90;99.90;;;;;;5049535;28;20234;-74
2023/06/13 06:11:39;;;;;;;2.00;1.90;;;18.00;99.90;;;;;;5051671;28;20294;-75
2023/06/13 06:14:06;;;;;;;2.03;1.80;;;18.00;99.90;;;;;;5054315;28;20644;-74
2023/06/13 06:16:33;;;;;;;2.10;1.90;;;18.10;99.90;;;;;;5050022;28;20249;-76
2023/06/13 06:19:01;;;;;;;1.77;1.67;;;18.10;99.90;;;;;;5057545;28;20229;-74
2023/06/13 06:21:29;;;;;;;2.25;2.00;;;18.00;99.90;;;;;;5056458;28;20215;-75
2023/06/13 06:23:56;;;;;;;3.35;2.45;;;17.90;99.90;;;;;;5055197;28;20684;-75
2023/06/13 06:26:24;;;;;;;2.42;2.30;;;17.80;99.90;;;;;;5056903;28;20238;-75
2023/06/13 06:28:51;;;;;;;2.22;2.10;;;17.80;99.90;;;;;;5057970;28;20230;-75
2023/06/13 06:31:18;;;;;;;3.00;2.33;;;17.70;99.90;;;;;;5053092;28;20199;-74
2023/06/13 06:33:45;;;;;;;2.60;2.40;;;17.70;99.90;;;;;;5058400;28;20203;-75
2023/06/13 06:36:15;;;;;;;3.35;2.80;;;17.70;99.90;;;;;;5054793;28;20214;-75
2023/06/13 06:38:42;;;;;;;5.38;2.97;;;17.70;99.90;;;;;;5058748;28;20221;-75
2023/06/13 06:41:09;;;;;;;3.72;2.88;;;17.80;99.90;;;;;;5059437;28;20569;-76
2023/06/13 06:43:36;;;;;;;3.35;2.35;;;17.80;99.90;;;;;;5054710;28;20223;-76
2023/06/13 06:46:03;;;;;;;2.30;2.20;;;17.80;99.90;;;;;;5056911;28;20667;-75
2023/06/13 06:48:30;;;;;;;3.95;2.63;;;17.80;99.90;;;;;;5053661;28;20801;-75
2023/06/13 06:50:57;;;;;;;2.55;2.35;;;17.80;99.90;;;;;;5051362;28;20326;-75
2023/06/13 06:53:25;;;;;;;2.10;2.00;;;17.90;99.90;;;;;;5046900;28;20285;-75
2023/06/13 06:55:52;;;;;;;2.40;2.30;;;18.10;99.90;;;;;;5055329;28;20248;-76
2023/06/13 06:58:19;;;;;;;2.53;2.20;;;18.20;99.90;;;;;;5054400;28;20312;-76
2023/06/13 07:00:46;;;;;;;2.72;2.53;;;18.20;99.90;;;;;;5051923;28;20248;-76
2023/06/13 07:03:13;;;;;;;3.35;2.45;;;18.30;99.90;;;;;;5050849;28;20202;-75
2023/06/13 07:05:41;;;;;;;2.65;2.45;;;18.50;99.90;;;;;;5050543;28;20201;-75
2023/06/13 07:08:10;;;;;;;2.40;2.20;;;18.60;99.90;;;;;;5048312;28;20845;-76
2023/06/13 07:10:39;;;;;;;2.47;2.28;;;18.60;99.90;;;;;;5053380;28;20285;-78
2023/06/13 07:13:06;;;;;;;3.20;2.90;;;18.70;99.90;;;;;;5053151;28;20272;-78
2023/06/13 07:15:33;;;;;;;3.63;2.30;;;18.80;99.90;;;;;;5051778;28;20338;-76
2023/06/13 07:18:00;;;;;;;2.53;2.33;;;18.90;99.90;;;;;;5050858;28;20275;-77
2023/06/13 07:20:27;;;;;;;2.83;2.63;;;18.90;99.90;;;;;;5051936;28;20612;-78
2023/06/13 07:22:54;;;;;;;2.63;2.42;;;19.00;99.90;;;;;;5060745;28;20198;-77
2023/06/13 07:25:21;;;;;;;4.10;2.60;;;19.10;99.90;;;;;;5053749;28;20202;-77
2023/06/13 07:27:49;;;;;;;2.58;2.28;;;19.20;99.90;;;;;;5052375;28;20283;-77
2023/06/13 07:30:16;;;;;;;2.53;2.35;;;19.30;99.90;;;;;;5048647;28;20429;-77
2023/06/13 07:32:43;;;;;;;2.83;2.63;;;19.60;99.90;;;;;;5052188;28;20277;-76
2023/06/13 07:35:12;;;;;;;2.92;2.72;;;19.80;99.90;;;;;;5048574;28;20206;-76
2023/06/13 07:37:40;;;;;;;2.85;2.65;;;19.80;99.90;;;;;;5054710;28;20249;-78
2023/06/13 07:40:09;;;;;;;2.50;2.28;;;20.00;99.90;;;;;;5050924;28;20198;-77
2023/06/13 07:42:36;;;;;;;3.00;2.78;;;19.90;99.90;;;;;;5051628;28;20210;-77
2023/06/13 07:45:04;;;;;;;2.80;2.60;;;19.80;99.90;;;;;;5050616;28;20194;-76
2023/06/13 07:47:31;;;;;;;2.75;2.55;;;19.90;99.90;;;;;;5048748;28;20700;-76
2023/06/13 07:49:58;;;;;;;3.47;2.60;;;19.80;99.90;;;;;;5049859;28;20222;-77
2023/06/13 07:52:25;;;;;;;2.60;2.40;;;19.90;99.90;;;;;;5049564;28;20229;-76
2023/06/13 07:54:52;;;;;;;3.15;2.63;;;20.10;99.90;;;;;;5050766;28;20289;-77
2023/06/13 07:57:19;;;;;;;2.55;2.35;;;20.40;99.90;;;;;;5049781;28;20269;-77
2023/06/13 07:59:46;;;;;;;2.90;2.38;;;20.50;99.90;;;;;;5049522;28;20216;-76
2023/06/13 08:02:14;;;;;;;3.17;2.50;;;20.50;99.90;;;;;;5052252;28;20291;-77
2023/06/13 08:04:41;;;;;;;2.50;2.30;;;20.50;99.90;;;;;;5051102;28;20289;-78
2023/06/13 08:07:09;;;;;;;4.40;2.65;;;20.70;99.90;;;;;;5050744;28;20313;-76
2023/06/13 08:09:36;;;;;;;3.38;2.40;;;21.00;99.90;;;;;;5051599;28;20199;-77
2023/06/13 08:12:03;;;;;;;2.13;2.03;;;21.30;99.90;;;;;;5053893;28;20284;-77
2023/06/13 08:14:30;;;;;;;2.40;2.15;;;21.60;99.90;;;;;;5055027;28;20293;-77
2023/06/13 08:16:56;;;;;;;2.42;2.22;;;21.90;99.90;;;;;;5052675;28;20812;-77
2023/06/13 08:19:25;;;;;;;2.67;2.20;;;22.10;99.90;;;;;;5058287;28;20245;-77
2023/06/13 08:21:52;;;;;;;2.72;2.53;;;22.20;99.90;;;;;;5051862;28;20225;-78
2023/06/13 08:24:19;;;;;;;2.53;2.33;;;22.20;99.90;;;;;;5054454;28;20230;-76
2023/06/13 08:26:49;;;;;;;2.40;2.20;;;22.10;99.90;;;;;;5047732;28;20286;-76
2023/06/13 08:29:17;;;;;;;2.50;2.30;;;22.10;99.90;;;;;;5047929;28;20201;-76
2023/06/13 08:31:44;;;;;;;3.22;2.50;;;21.80;99.90;;;;;;5052969;28;20223;-77
2023/06/13 08:34:11;;;;;;;3.97;2.22;;;21.60;99.90;;;;;;5051259;28;20463;-76
2023/06/13 08:36:39;;;;;;;2.38;2.20;;;21.50;99.90;;;;;;5047353;28;20620;-78
2023/06/13 08:39:06;;;;;;;2.65;2.45;;;21.70;99.90;;;;;;5050327;28;20194;-76
2023/06/13 08:41:34;;;;;;;3.17;2.35;;;22.10;99.90;;;;;;5050211;28;20689;-77
2023/06/13 08:44:01;;;;;;;2.40;2.20;;;22.50;99.90;;;;;;5051545;28;20723;-77
2023/06/13 08:46:29;;;;;;;4.53;2.40;;;22.60;99.90;;;;;;5052094;28;20222;-77
2023/06/13 08:48:56;;;;;;;2.35;2.25;;;22.80;99.90;;;;;;5050658;28;20271;-78
2023/06/13 08:51:23;;;;;;;2.47;2.10;;;23.00;99.90;;;;;;5048818;28;20209;-77
2023/06/13 08:53:56;;;;;;;2.00;1.80;;;23.30;99.90;;;;;;5048586;28;20253;-77
2023/06/13 08:56:25;;;;;;;3.92;2.25;;;23.50;99.90;;;;;;5048006;28;20648;-77
2023/06/13 08:58:58;;;;;;;2.20;2.10;;;23.50;99.90;;;;;;5049565;28;20425;-78
2023/06/13 09:01:27;;;;;;;2.00;1.90;;;23.40;99.90;;;;;;5047189;28;20224;-77
2023/06/13 09:03:56;;;;;;;2.00;1.90;;;23.40;99.90;;;;;;5052117;28;20227;-75
2023/06/13 09:06:23;;;;;;;3.35;1.80;;;23.70;99.90;;;;;;5046789;28;20226;-77
2023/06/13 09:08:53;;;;;;;2.38;2.17;;;23.50;99.90;;;;;;5052688;28;20203;-77
2023/06/13 09:11:20;;;;;;;2.15;2.03;;;23.50;99.90;;;;;;5044529;28;20256;-76
2023/06/13 09:13:50;;;;;;;2.28;2.10;;;23.10;99.90;;;;;;5054033;28;20510;-76
2023/06/13 09:16:18;;;;;;;2.30;2.10;;;23.00;99.90;;;;;;5058914;28;20922;-78
2023/06/13 09:18:46;;;;;;;2.60;2.10;;;23.40;99.90;;;;;;5048168;28;20629;-77
2023/06/13 09:21:12;;;;;;;2.05;1.95;;;23.60;99.90;;;;;;5048847;28;20642;-76
2023/06/13 09:23:40;;;;;;;2.28;2.17;;;23.70;99.90;;;;;;5049274;28;20226;-76
2023/06/13 09:26:10;;;;;;;3.28;2.30;;;23.70;99.90;;;;;;5051416;28;20209;-77
2023/06/13 09:28:40;;;;;;;2.20;1.98;;;23.80;99.90;;;;;;5046822;28;20657;-77
2023/06/13 09:31:07;;;;;;;2.33;2.10;;;24.00;99.90;;;;;;5047710;28;20203;-77
2023/06/13 09:33:35;;;;;;;2.22;2.10;;;24.10;99.90;;;;;;5048376;28;20202;-77
2023/06/13 09:36:02;;;;;;;2.30;2.10;;;24.10;99.90;;;;;;5043412;28;20263;-77
2023/06/13 09:38:29;;;;;;;1.90;1.80;;;24.00;99.90;;;;;;5052424;28;20660;-76
2023/06/13 09:40:57;;;;;;;2.80;2.10;;;23.90;99.90;;;;;;5043888;28;20721;-76
2023/06/13 09:43:27;;;;;;;3.00;2.30;;;23.80;99.90;;;;;;5042477;28;20314;-76
2023/06/13 09:45:54;;;;;;;2.35;2.15;;;23.80;99.90;;;;;;5048268;28;20285;-77
2023/06/13 09:48:22;;;;;;;3.22;2.25;;;23.90;99.90;;;;;;5044648;28;20225;-77
2023/06/13 09:50:50;;;;;;;2.42;2.30;;;24.00;99.90;;;;;;5050764;28;20546;-77
2023/06/13 09:53:17;;;;;;;4.95;2.22;;;23.90;99.90;;;;;;5048701;28;20402;-77
2023/06/13 09:55:44;;;;;;;2.10;2.00;;;24.00;99.90;;;;;;5055798;28;20436;-78
2023/06/13 09:58:11;;;;;;;2.45;2.10;;;24.20;99.90;;;;;;5053200;28;20247;-77
2023/06/13 10:00:40;;;;;;;2.45;2.13;;;24.40;99.90;;;;;;5046797;28;20582;-77
2023/06/13 10:03:07;;;;;;;2.40;2.20;;;24.50;99.90;;;;;;5049289;28;20210;-77
2023/06/13 10:05:34;;;;;;;4.40;2.20;;;24.20;99.90;;;;;;5054517;28;20286;-77
2023/06/13 10:08:01;;;;;;;2.08;1.98;;;24.20;99.90;;;;;;5051110;28;20279;-77
2023/06/13 10:10:28;;;;;;;2.17;2.03;;;24.30;99.90;;;;;;5052579;28;20233;-78
2023/06/13 10:12:59;;;;;;;2.95;1.90;;;24.20;99.90;;;;;;5061465;28;20202;-78
2023/06/13 10:15:33;;;;;;;1.92;1.83;;;24.40;99.90;;;;;;5054587;28;20263;-78
2023/06/13 10:18:05;;;;;;;2.40;2.20;;;24.40;99.90;;;;;;5050809;28;20308;-77
2023/06/13 10:20:33;;;;;;;2.60;2.40;;;24.60;99.90;;;;;;5051670;28;20270;-76
2023/06/13 10:23:00;;;;;;;1.90;1.80;;;24.70;99.90;;;;;;5050190;28;20297;-78
2023/06/13 10:25:31;;;;;;;2.03;1.90;;;24.70;99.90;;;;;;5051542;28;20222;-76
2023/06/13 10:28:04;;;;;;;2.45;2.25;;;24.70;99.90;;;;;;5053387;28;20246;-76
2023/06/13 10:30:45;;;;;;;2.40;2.20;;;24.70;99.90;;;;;;5048798;28;20202;-76
2023/06/13 10:33:36;;;;;;;2.30;2.10;;;24.70;99.90;;;;;;5047347;28;20202;-77
2023/06/13 10:36:16;;;;;;;3.40;2.10;;;24.80;99.90;;;;;;5054683;28;20230;-77
2023/06/13 10:39:17;;;;;;;1.88;1.77;;;24.80;99.90;;;;;;5049498;28;20859;-76
2023/06/13 10:42:02;;;;;;;2.13;1.92;;;24.80;99.90;;;;;;5047367;28;20226;-76
2023/06/13 10:44:38;;;;;;;2.50;2.30;;;24.90;99.90;;;;;;5045646;28;20318;-77
2023/06/13 10:47:07;;;;;;;2.20;2.00;;;24.90;99.90;;;;;;5052575;28;20218;-75
2023/06/13 10:49:39;;;;;;;2.40;2.10;;;25.00;99.90;;;;;;5048314;28;20293;-77
2023/06/13 10:52:11;;;;;;;2.00;1.90;;;25.00;99.90;;;;;;5050309;28;20556;-78
2023/06/13 10:54:41;;;;;;;2.10;1.90;;;25.20;99.90;;;;;;5043026;28;20681;-77
2023/06/13 10:57:09;;;;;;;2.15;1.98;;;25.20;99.90;;;;;;5045661;28;20256;-79
2023/06/13 10:59:37;;;;;;;2.15;1.95;;;25.20;99.90;;;;;;5048291;28;20206;-76
2023/06/13 11:02:04;;;;;;;2.00;1.90;;;25.30;99.90;;;;;;5046346;28;20214;-76
2023/06/13 11:04:33;;;;;;;1.90;1.80;;;25.40;99.90;;;;;;5048310;28;20241;-75
2023/06/13 11:07:30;;;;;;;3.03;2.22;;;25.40;99.90;;;;;;5047001;28;20763;-76
2023/06/13 11:10:05;;;;;;;1.95;1.85;;;25.30;99.90;;;;;;5050231;28;20230;-77
2023/06/13 11:12:33;;;;;;;2.40;2.25;;;25.20;99.90;;;;;;5047380;28;20202;-75
2023/06/13 11:15:01;;;;;;;2.38;2.17;;;25.50;99.90;;;;;;5046980;28;20890;-77
2023/06/13 11:17:28;;;;;;;2.03;1.92;;;25.50;99.90;;;;;;5049926;28;20404;-76
2023/06/13 11:19:56;;;;;;;2.30;2.20;;;25.50;99.90;;;;;;5045934;28;20209;-77
2023/06/13 11:22:23;;;;;;;1.83;1.73;;;25.50;99.90;;;;;;5048019;28;20222;-75
2023/06/13 11:24:56;;;;;;;1.70;1.60;;;25.60;99.90;;;;;;5049282;28;20222;-76
2023/06/13 11:27:25;;;;;;;1.90;1.80;;;25.60;99.90;;;;;;5045183;28;20231;-75
2023/06/13 11:29:53;;;;;;;2.00;1.90;;;25.70;99.90;;;;;;5046275;28;20484;-76
2023/06/13 11:32:22;;;;;;;2.00;1.90;;;25.80;99.90;;;;;;5046123;28;20199;-77
2023/06/13 11:34:50;;;;;;;2.10;2.00;;;25.80;99.90;;;;;;5045159;28;20241;-76
2023/06/13 11:37:28;;;;;;;2.05;1.80;;;25.80;99.90;;;;;;5049229;28;20700;-76
2023/06/13 11:39:57;;;;;;;2.00;1.83;;;25.90;99.90;;;;;;5047205;28;20260;-76
2023/06/13 11:42:25;;;;;;;1.95;1.85;;;26.00;99.90;;;;;;5046946;28;20250;-76
2023/06/13 11:44:52;;;;;;;2.22;2.10;;;26.00;99.90;;;;;;5045499;28;22688;-75
2023/06/13 11:47:19;;;;;;;2.20;1.98;;;26.00;99.90;;;;;;5044452;28;20245;-74
2023/06/13 11:49:56;;;;;;;2.20;2.10;;;25.90;99.90;;;;;;5044295;28;20613;-75
2023/06/13 11:52:23;;;;;;;2.05;1.83;;;25.90;99.90;;;;;;5047300;28;20583;-74
2023/06/13 11:54:50;;;;;;;2.03;1.92;;;25.90;99.90;;;;;;5044937;28;21039;-77
2023/06/13 11:57:19;;;;;;;2.10;1.90;;;25.90;99.90;;;;;;5045027;28;20218;-77
2023/06/13 11:59:46;;;;;;;2.95;2.10;;;26.00;99.90;;;;;;5041398;28;20578;-76
2023/06/13 12:02:15;;;;;;;2.03;1.83;;;26.00;99.90;;;;;;5048019;28;20225;-78
2023/06/13 12:04:43;;;;;;;2.35;2.15;;;25.80;99.90;;;;;;5047828;28;20750;-76
2023/06/13 12:07:10;;;;;;;3.63;2.10;;;26.00;99.90;;;;;;5050522;28;20441;-77
2023/06/13 12:09:37;;;;;;;1.85;1.75;;;25.90;99.90;;;;;;5049613;28;20198;-78
2023/06/13 12:12:05;;;;;;;2.10;1.90;;;26.00;99.90;;;;;;5047740;28;20285;-76
2023/06/13 12:14:34;;;;;;;2.78;2.05;;;26.20;99.90;;;;;;5047233;28;20231;-77
2023/06/13 12:17:01;;;;;;;1.90;1.80;;;26.30;99.90;;;;;;5046452;28;20313;-76
2023/06/13 12:19:28;;;;;;;1.88;1.77;;;26.30;99.90;;;;;;5047101;28;20205;-77
2023/06/13 12:21:59;;;;;;;1.80;1.70;;;26.40;99.90;;;;;;5047038;28;20234;-78
2023/06/13 12:24:26;;;;;;;2.20;2.00;;;26.40;99.90;;;;;;5047345;28;20811;-77
2023/06/13 12:26:56;;;;;;;2.03;1.92;;;26.40;99.90;;;;;;5048431;28;20246;-77
2023/06/13 12:29:27;;;;;;;1.98;1.88;;;26.40;99.90;;;;;;5051793;28;20214;-77
2023/06/13 12:32:02;;;;;;;3.15;2.10;;;26.40;99.90;;;;;;5047953;28;20631;-78
2023/06/13 12:34:32;;;;;;;1.90;1.80;;;26.40;99.90;;;;;;5043288;28;20203;-77
2023/06/13 12:37:02;;;;;;;3.17;2.00;;;26.40;99.90;;;;;;5047374;28;20313;-77
2023/06/13 12:39:30;;;;;;;1.92;1.83;;;26.30;99.90;;;;;;5050338;28;20313;-78
2023/06/13 12:42:01;;;;;;;2.60;2.13;;;26.40;99.90;;;;;;5043527;28;20317;-77
2023/06/13 12:44:30;;;;;;;2.38;2.17;;;26.40;99.90;;;;;;5045371;28;20202;-77
2023/06/13 12:47:02;;;;;;;2.10;2.00;;;26.30;99.90;;;;;;5047818;28;20891;-77
2023/06/13 12:49:35;;;;;;;1.90;1.80;;;26.40;99.90;;;;;;5047196;28;20214;-76
2023/06/13 12:52:04;;;;;;;2.05;1.95;;;26.30;99.90;;;;;;5045003;28;20609;-78
2023/06/13 12:54:35;;;;;;;2.85;1.80;;;26.30;99.90;;;;;;5048532;28;20206;-78